CFH2 weather

Frontline Helicopters Heliport
Williams Lake, British Columbia, Canada

Public forecast

Using degrees Celsius for public forecast. Weather courtesy of forecast.io.

METAR (pilot weather report)

Closest report is Williams Lake Airport, 15.9 nm (29.4 km) NW. Retrieved 2019/08/21 14:00 UTC (36 minutes ago):

CYWL 211400Z 12013G20KT 15SM SCT090 BKN140 BKN220 17/05 A2983 RMK AC3AC2CI2 SLP092 DENSITY ALT 4100FT

TAF (pilot weather forecast)

Closest forecast is Williams Lake Airport, 15.9 nm (29.4 km) NW. Retrieved 2019/08/21 13:45 UTC (51 minutes ago):

TAF CYWL 211244Z 2113/2201 13012KT P6SM SCT140 BKN220 BECMG 2115/2117 13012G22KT FM211700 14012G22KT P6SM BKN060 TEMPO 2117/2121 P6SM -SHRA FM212100 15015KT P6SM SCT060 BKN100 TEMPO 2121/2201 P6SM -SHRA VCTS BKN060CB BKN100 BECMG 2122/2124 31008KT RMK NXT FCST BY 211900Z